NWS Home NWS Lubbock West Texas Mesonet Latest Conditions as of 0316 PM, Sat Jan 19, 2019

Latest   N   C   S   Daily Sum   3hrΔ   24hrΔ   Soil Data 
Site Map   24hr Precip   72hr Precip   Google Plot


Station Time of Last Temp Dew Pt. RH Wind Direction Wind Speed Wind Gust Max Wind Max Temp Min Temp Max RH Min RH Altimeter 1HR Rain Today's Rain Solar Rad Wind ChillRFTI
Abernathy 5ENE  03:10 PM 50 24 36% N2127 38 mph 347° @ 0215 AM 50 23 92 36 30.26" 0 0 518   0
Adrian 6WSW  02:25 PM 46 25 44% N68 31 mph 357° @ 1208 AM 47 27 90 43 30.25" 0 0.02 560   0
Aiken 3WSW  03:10 PM 48 27 45% N1722 42 mph 350° @ 0112 AM 48 24 90 42 30.27" 0 0 523   0
Amarillo 15NNW   03:10 PM 47 26 44% N1517 32 mph 342° @ 1226 AM 47 21 100 43 30.25" 0 0 465   0
Amarillo 7SSE  03:10 PM 45 25 46% NW1619 40 mph 347° @ 1205 AM 45 24 88 46 30.26" 0 0 502   0
Amarillo 9NNE  03:10 PM 45 26 46% N1315 37 mph 355° @ 1225 AM 45 21 92 46 30.25" 0 0 427   0
Amherst 1NE  03:10 PM 50 29 45% NW1016 40 mph 329° @ 1255 AM 50 29 88 45 30.26" 0 0 511   0
Andrews 2E  03:10 PM 57 21 24% NW1115 35 mph 338° @ 0225 AM 57 33 74 24 30.27" 0 0 501   0
Anton 6SSW  03:10 PM 51 28 40% NW1319 37 mph 337° @ 1210 AM 51 28 87 39 30.26" 0 0 518   0
Aspermont 3NE  03:10 PM 48 26 43% NW2025 38 mph 332° @ 1235 AM 48 32 92 43 30.27" 0 0 494   0
Big Bend NP - Persimmon Gap  03:10 PM 60 21 22% SE68 23 mph 338° @ 0618 AM 60 45 50 22 30.29" 0 0 576   0
Big Lake 1WNW  03:10 PM 55 27 34% NW1823 41 mph 328° @ 0101 AM 55 36 76 33 30.28" 0 0 568   0
Bootleg 11WNW  03:10 PM 48 22 35% W34 33 mph 329° @ 0330 AM 49 24 93 34 30.25" 0 0.03 460   0
Boys Ranch 1WSW  03:10 PM 50 26 39% N710 23 mph 348° @ 1237 AM 50 21 97 38 30.25" 0 0 465   0
Brownfield 2S  03:10 PM 54 26 33% NW913 34 mph 346° @ 1250 AM 54 32 85 33 30.26" 0 0 520   0
Canadian 6E  03:10 PM 35 17 47% NW1822 46 mph 340° @ 0234 AM 35 23 83 47 30.24" 0 0 469 25 0
Caprock Canyons State Park  03:10 PM 46 26 45% N1216 41 mph 329° @ 1240 AM 46 30 78 45 30.27" 0 0 503   0
Childress 2NNE  03:10 PM 44 20 38% N1721 49 mph 336° @ 0355 AM 44 29 80 38 30.25" 0 0 464   0
Clarendon 2WSW  03:10 PM 42 26 54% NW2027 46 mph 342° @ 0145 AM 42 28 82 54 30.25" 0 0 478   0
Claude 12SW  03:10 PM 43 25 49% NW1318 44 mph 336° @ 1224 AM 43 24 92 49 30.25" 0 0 510   0
Clyde 2WNW  03:10 PM 45 25 44% NW2732 43 mph 325° @ 0329 AM 46 32 92 42 30.22" 0 0 480   0
Colorado City 5NW  03:10 PM 55 27 33% NW2330 41 mph 336° @ 1216 AM 55 32 91 33 30.27" 0 0 503   1
Coyanosa 2N  03:10 PM 58 25 28% W01 22 mph 327° @ 1202 AM 59 37 63 27 30.30" 0 0 558   0
Crane 1NNW   03:10 PM 59 25 28% N1115 33 mph 348° @ 0319 AM 59 33 75 27 30.28" 0 0 579   0
Crowell 1E  03:10 PM 43 17 36% N2327 42 mph 342° @ 1213 AM 43 31 93 35 30.27" 0 0 500   0
Dell City  03:10 PM 57 22 26% NE79 28 mph 308° @ 1211 AM 59 27 69 22 30.30" 0 0 563   0
Denver City 7WNW  03:10 PM 55 16 21% NW1316 38 mph 339° @ 1255 AM 55 29 89 21 30.25" 0 0 528   0
Dimmitt 2NE  03:10 PM 46 31 55% NW1016 38 mph 348° @ 1235 AM 46 25 95 55 30.25" 0 0 528   0
Dora NM 2SW  03:10 PM 53 20 27% SW813 31 mph 349° @ 1220 AM 54 28 90 27 30.24" 0 0 463   0
Dozier 3W  03:10 PM 42 20 41% N2124 52 mph 350° @ 1202 AM 42 27 75 40 30.26" 0 0 480   0
Earth 9WSW  03:10 PM 49 29 46% NW79 36 mph 338° @ 1228 AM 51 28 89 44 30.27" 0 0 493   0
Endee NM 2SW  03:10 PM 50 23 34% W01 21 mph 326° @ 0358 AM 51 26 90 34 30.23" 0 0 485   0
Estelline 3SSE  03:10 PM 46 22 39% N1821 41 mph 342° @ 0253 AM 46 31 68 38 30.26" 0 0 468   0
Floydada 2NNE  03:10 PM 49 23 36% N1924 41 mph 338° @ 0240 AM 49 27 93 36 30.26" 0 0 498   0
Fluvanna 3WNW  03:10 PM 52 27 38% NW1924 44 mph 343° @ 1220 AM 52 31 93 38 30.25" 0 0 499   0
Fort Chadbourne  03:10 PM 53 27 36% N1521 42 mph 334° @ 1257 AM 53 35 77 36 30.24" 0 0 507   0
Fort Lancaster  03:10 PM 60 29 30% NW1117 34 mph 310° @ 0349 AM 61 42 65 27 30.28" 0 0 530   0
Fort Lewis CO  03:10 PM 38 18 44% W67 15 mph 275° @ 0225 PM 39 -0 83 40 30.30" 0.04 0.13 534   0
Fort McKavett  03:10 PM 55 27 33% NW2128 36 mph 326° @ 0509 AM 59 37 75 29 30.24" 0 0 541   0
Friona 2NE  03:10 PM 48 29 48% W47 37 mph 343° @ 0100 AM 48 25 100 47 30.25" 0 0.02 508   0
Fritch 1WNW  03:10 PM 40 27 59% N810 37 mph 7° @ 1257 AM 40 25 87 59 30.26" 0 0 458   0
Gail 2ESE  03:10 PM 55 26 32% NW1923 45 mph 339° @ 0110 AM 56 34 76 32 30.25" 0 0 513   0
Goodlett 3W  03:10 PM 42 16 34% N2228 43 mph 333° @ 0405 AM 42 30 86 34 30.26" 0 0 490   1
Goodnight  03:10 PM 42 28 56% N1620 47 mph 337° @ 0103 AM 42 26 92 55 30.26" 0 0 467   0
Graham 5SSW  03:10 PM 53 26 35% NW2027 59 mph 345° @ 1235 AM 53 30 91 35 30.25" 0 0 495   0
Guadalupe Mtns Natl Park  03:10 PM 49 14 24% W1014 42 mph 339° @ 0153 AM 50 27 67 23 30.30" 0 0 528   0
Guthrie 10WSW  03:10 PM 48 24 38% NW1725 41 mph 334° @ 1215 AM 48 30 89 38 30.26" 0 0 465   0
Hackberry 2 SSE  03:10 PM 46 23 40% NW2226 40 mph 339° @ 1214 AM 46 31 97 40 30.26" 0 0.01 522   0
Happy 1E  03:10 PM 45 27 50% NW1315 42 mph 348° @ 1219 AM 45 22 91 48 30.26" 0 0 501   0
Hart 3N  03:10 PM 47 30 50% NW1418 41 mph 338° @ 1205 AM 47 24 96 48 30.26" 0 0 504   0
Haskell 1NW  03:10 PM 46 24 43% NW2228 43 mph 339° @ 1250 AM 46 31 96 42 30.25" 0 0 478   0
Hereford 2NW  03:10 PM 48 27 45% N712 35 mph 354° @ 0105 AM 48 25 89 45 30.25" 0 0.02 497   0
Hobbs NM 5NW  03:10 PM 55 18 24% W57 37 mph 352° @ 1202 AM 55 32 78 23 30.29" 0 0 534   0
Jayton 1SSE  03:10 PM 50 25 37% NW2227 39 mph 331° @ 1245 AM 50 31 79 37 30.26" 0 0 509   0
Junction 1SSW  03:10 PM 56 27 32% NW1319 33 mph 303° @ 0350 AM 63 40 66 25 30.23" 0 0 463   0
Knox City 3NW  03:10 PM 48 25 40% N2126 40 mph 333° @ 0100 AM 48 32 98 40 30.27" 0 0.02 429   0
Lake Alan Henry 1NW  03:10 PM 53 26 35% N2123 37 mph 338° @ 1204 AM 54 31 94 34 30.26" 0 0.01 492   0
Lamesa 2SE  03:10 PM 54 27 36% NW1322 40 mph 334° @ 1205 AM 55 33 80 35 30.26" 0 0 555   0
Lesley 2S  03:10 PM 47 26 43% NW1922 43 mph 317° @ 0213 AM 47 31 73 43 30.26" 0 0 505   0
Levelland 4S  03:10 PM 53 25 33% NW1216 36 mph 333° @ 0215 AM 53 29 89 33 30.26" 0 0 518   0
Lomax 1SSE  03:10 PM 57 25 30% NW1214 37 mph 341° @ 1210 AM 57 35 71 29 30.27" 0 0 527   0
Lubbock 3WNW TTU  03:10 PM 52 25 34% N1120 34 mph 343° @ 0140 AM 53 28 98 34 30.26" 0 0 536   0
McCamey 1SSW  03:10 PM 58 27 29% NW1012 34 mph 335° @ 0108 AM 59 37 71 28 30.29" 0 0 498   0
McLean 1E  03:10 PM 39 22 50% NW2429 49 mph 340° @ 0140 AM 39 25 81 48 30.21" 0 0 471   0
Memphis 1NE  03:10 PM 45 24 43% NW2025 54 mph 356° @ 1205 AM 45 30 73 42 30.25" 0 0 434   0
Menard 2NW   03:10 PM 54 28 37% NW1315 39 mph 324° @ 0316 AM 60 38 73 29 30.23" 0 0 485   0
Mertzon 3NNE  03:10 PM 57 28 33% N1618 37 mph 326° @ 0213 AM 57 37 71 32 30.27" 0 0 486   0
Morton 1ENE  03:10 PM 53 24 33% NW511 36 mph 344° @ 1215 AM 53 30 86 33 30.26" 0 0 497   0
Muleshoe 2SSW  03:10 PM 52 27 38% W48 28 mph 334° @ 1230 AM 52 27 93 38 30.25" 0 0 514   0
New Home  03:10 PM 53 26 35% N1518 37 mph 347° @ 0232 AM 53 30 92 35 30.27" 0 0 516   0
Northfield 1S  03:10 PM 47 24 41% NW1525 38 mph 342° @ 0330 AM 47 30 96 41 30.27" 0 0.05 486   0
O'Donnell 1N  03:10 PM 54 23 29% NW1620 41 mph 336° @ 1230 AM 55 30 82 29 30.26" 0 0 471   0
Odell 4ENE  03:10 PM 40 15 36% N2125 44 mph 342° @ 1209 AM 41 29 78 35 30.27" 0 0 472   0
Olton 6S  03:10 PM 49 27 43% NW1519 43 mph 342° @ 0115 AM 49 25 92 42 30.26" 0 0 467   0
Paducah 10SW  03:10 PM 48 25 41% N2027 43 mph 347° @ 1205 AM 48 30 97 40 30.26" 0 0 440   0
Palo Duro 4E (JA Ranch)  03:10 PM 47 27 46% NW1520 46 mph 342° @ 0151 AM 47 29 79 46 30.27" 0 0 479   0
Palo Duro Canyon SP Floor  03:10 PM 48 26 42% NW811 35 mph 336° @ 1255 AM 49 28 84 41 30.26" 0 0 422   0
Palo Duro Canyon State Park Rim  03:10 PM 46 26 46% NW69 40 mph 338° @ 0104 AM 46 25 83 45 30.26" 0 0.02 517   0
Palo Duro Reservoir 1NW   03:10 PM 34 27 77% N1113 43 mph 349° @ 0138 AM 34 24 87 72 30.25" 0 0 385 26 0
Pampa 2E  03:10 PM 36 26 67% NW2026 50 mph 336° @ 0200 AM 37 24 98 66 30.23" 0 0 433   0
Panhandle 1SSW  03:10 PM 39 28 66% NW1517 42 mph 339° @ 0235 AM 39 25 95 64 30.25" 0 0 481   0
Plains 3N  03:10 PM 55 21 27% W814 44 mph 335° @ 1215 AM 55 27 88 26 30.25" 0 0 530   0
Plainview 1S  03:10 PM 47 26 44% N1722 34 mph 334° @ 0100 AM 48 26 91 43 30.25" 0 0 463   0
Post 1NE  03:10 PM 55 24 31% NW1724 44 mph 339° @ 1205 AM 55 32 83 31 30.25" 0 0 511   0
Ralls 1SE  03:10 PM 50 23 35% N1822 38 mph 335° @ 1210 AM 50 29 86 35 30.26" 0 0 511   0
Reese Center  03:10 PM 52 26 37% N1419 37 mph 345° @ 0205 AM 52 26 90 36 30.26" 0 0 535   0
Roaring Springs 3N  03:10 PM 46 28 49% N1522 40 mph 342° @ 0930 AM 46 29 100 48 30.26" 0 0 456   0
Romero 11 SSW  03:10 PM 50 23 34% E23 23 mph 1° @ 1014 AM 50 24 89 32 30.22" 0 0 467   0
Rotan 5W  03:10 PM 52 27 37% N1923 39 mph 325° @ 0120 AM 52 33 96 36 30.26" 0 0.02 522   0
San Angelo 7NW  03:10 PM 54 26 33% NW2028 43 mph 311° @ 1230 AM 55 37 68 32 30.26" 0 0 531   0
Seagraves 1SW  03:10 PM 57 21 25% NW1216 41 mph 329° @ 1245 AM 57 29 85 24 30.25" 0 0 475   0
Seminole 2NNE  03:10 PM 56 20 24% NW1017 37 mph 333° @ 0115 AM 56 31 78 24 30.26" 0 0 540   0
Seymour 3NW  03:10 PM 42 19 39% NW2330 44 mph 334° @ 0110 AM 42 31 94 39 30.26" 0 0.02 492   0
Sierra Blanca 1SSE  03:10 PM 55 16 21% W712 29 mph 331° @ 0137 AM 56 32 52 21 30.32" 0 0 464   0
Silverton 7ESE  03:10 PM 45 24 43% NW1923 43 mph 338° @ 0300 AM 45 27 84 43 30.25" 0 0 477   0
Slaton 2NE  03:10 PM 52 25 36% NW1422 48 mph 344° @ 1205 AM 52 29 94 36 30.25" 0 0 471   0
Snyder 3E  03:10 PM 53 27 37% NW2127 46 mph 329° @ 1210 AM 53 31 99 37 30.24" 0 0 457   0
Snyder 3SSW  03:10 PM 54 28 36% N1519 45 mph 332° @ 1205 AM 54 32 95 36 30.26" 0 0 496   0
South Plains 3ENE  03:10 PM 47 24 40% N1923 36 mph 341° @ 0317 AM 48 26 90 40 30.26" 0 0 477   0
Spur 1W  03:10 PM 51 23 33% N1726 40 mph 347° @ 1220 AM 51 30 93 33 30.25" 0 0 506   0
St. Lawrence 5SW  03:10 PM 56 25 30% NW1823 48 mph 332° @ 0110 AM 56 35 72 30 30.27" 0 0 498   0
Stamford 5ESE  03:10 PM 47 27 47% NW2331 41 mph 336° @ 0248 AM 47 33 93 46 30.26" 0 0 482   0
Sterling City 4WSW  03:10 PM 55 27 33% NW1418 45 mph 316° @ 1215 AM 55 35 68 33 30.27" 0 0 432   0
Stinnett 1NNW  03:10 PM 37 28 70% NW1720 48 mph 356° @ 0159 AM 37 26 89 70 30.26" 0 0 485   0
Sundown 8WSW  03:10 PM 54 24 31% NW911 38 mph 335° @ 1220 AM 54 30 88 31 30.25" 0 0 464   0
Sweetwater 11SW   03:10 PM 51 27 38% NW1518 38 mph 331° @ 0123 AM 51 32 85 37 30.26" 0 0 552   0
Tahoka 3NNE  03:10 PM 54 24 32% NW1618 41 mph 341° @ 1207 AM 55 29 88 31 30.25" 0 0 514   0
Tarzan 2WNW  03:10 PM 56 26 31% NW1820 38 mph 341° @ 1231 AM 57 33 77 31 30.27" 0 0 488   0
Tatum NM 2SW  03:10 PM 54 17 24% SW913 30 mph 343° @ 0130 AM 54 26 88 23 30.27" 0 0 578   0
Throckmorton 1SW  03:10 PM 43 20 40% N1725 44 mph 324° @ 1222 AM 44 33 93 39 30.26" 0 0 491   0
Tulia 2ENE  03:10 PM 46 25 44% N1822 45 mph 334° @ 0115 AM 46 22 88 43 30.25" 0 0 457   0
Turkey 2WSW  03:10 PM 46 25 45% NW1824 44 mph 314° @ 0220 AM 46 29 77 45 30.26" 0 0 438   0
Umbarger 3NNE  03:10 PM 44 29 55% NW1416 40 mph 349° @ 0133 AM 45 20 93 52 30.26" 0 0.02 467   0
Van Horn 3ENE  03:10 PM 58 18 21% W914 34 mph 341° @ 1221 AM 58 28 62 21 30.31" 0 0 625   0
Vigo Park  03:10 PM 46 25 43% NW1619 44 mph 343° @ 1240 AM 46 26 87 43 30.26" 0 0 458   0
Wall 2E  03:10 PM 56 28 34% NW1922 41 mph 328° @ 1249 AM 56 38 74 33 30.26" 0 0 53   0
Weinert 2NNE  03:10 PM 45 21 39% N2426 42 mph 343° @ 0132 AM 45 32 90 38 30.26" 0 0.02 494   0
Welch  03:10 PM 55 25 32% NW1717 37 mph 334° @ 0139 AM 55 30 82 32 30.27" 0 0 509   0
White River Lake 6NW  03:10 PM 53 22 30% NW1824 46 mph 331° @ 1205 AM 53 30 88 30 30.25" 0 0 497   0
Wolfforth 6SSW  03:10 PM 52 27 38% NW1623 41 mph 336° @ 1210 AM 52 28 90 37 30.26" 0 0 502   0

West Texas Mesonet Home   Site Map/Menu  NWS Lubbock Soil Data  Daily Summary Page  24hr Precip  72hr Precip  Google Plot